Sierra Bonita, Arizona
Current Conditions -  °F | °C
As of 1:51 PM on Sunday 21 Dec 2014 (Local Time) from KSAD Reporting Station
Clear Clear  
Wind Chill: 55°   Ceiling: Unl
Heat Index: 55°   Visibility: 10mi
Dew Point: 37°   Wind: 7mph
Humidity: 51%   Direction: 280°W
Pressure: 30.02"   Gusts: NA
Location:  32.5598°N, 110.08°W
Report Text: KSAD 212051Z AUTO 28006KT 10SM CLR 13/03 A3002 RMK AO2 SLP152 T01280028 58036
Loading
Personal Weather Stations






























Interactive Weather Map New forecast layout! Learn more

10-Day Weather Forecast

Advertisements
Track Severe Weather on mobile